createdAt,value
2023-04-15T00:01:55.386Z,100384.75
2023-04-15T00:04:22.419Z,100392.34
2023-04-15T00:06:55.731Z,100389.38
2023-04-15T00:09:26.475Z,100387.84
2023-04-15T00:11:55.784Z,100387.84
2023-04-15T00:14:22.607Z,100382.97
2023-04-15T00:16:55.587Z,100382.59
2023-04-15T00:19:22.549Z,100385.41
2023-04-15T00:21:49.402Z,100384.13
2023-04-15T00:24:16.514Z,100390.19
2023-04-15T00:26:44.714Z,100382.06
2023-04-15T00:29:11.611Z,100385.78
2023-04-15T00:31:40.446Z,100380.19
2023-04-15T00:34:07.400Z,100384.94
2023-04-15T00:36:35.215Z,100384.59
2023-04-15T00:39:03.308Z,100378.53
2023-04-15T00:41:30.183Z,100390.00
2023-04-15T00:43:59.308Z,100392.09
2023-04-15T00:46:27.213Z,100384.94
2023-04-15T00:48:55.232Z,100394.81
2023-04-15T00:51:22.063Z,100394.66
2023-04-15T00:53:48.968Z,100378.19
2023-04-15T00:56:16.193Z,100383.53
2023-04-15T00:58:43.263Z,100383.53
2023-04-15T01:01:11.618Z,100386.06
2023-04-15T01:03:38.867Z,100391.13
2023-04-15T01:06:08.671Z,100382.63
2023-04-15T01:08:35.584Z,100389.84
2023-04-15T01:11:03.791Z,100382.19
2023-04-15T01:13:33.580Z,100386.78
2023-04-15T01:16:02.118Z,100381.53
2023-04-15T01:18:31.586Z,100382.34
2023-04-15T01:21:00.518Z,100382.00
2023-04-15T01:23:28.059Z,100390.47
2023-04-15T01:25:56.938Z,100386.41
2023-04-15T01:28:23.959Z,100383.53
2023-04-15T01:30:50.791Z,100384.34
2023-04-15T01:33:19.452Z,100384.97
2023-04-15T01:35:46.505Z,100384.53
2023-04-15T01:38:15.841Z,100394.13
2023-04-15T01:40:48.022Z,100402.50
2023-04-15T01:43:16.268Z,100392.94
2023-04-15T01:45:44.899Z,100399.72
2023-04-15T01:48:13.840Z,100393.91
2023-04-15T01:50:40.790Z,100399.44
2023-04-15T01:53:09.679Z,100393.66
2023-04-15T01:55:37.154Z,100403.06
2023-04-15T01:58:04.270Z,100395.28
2023-04-15T02:00:32.687Z,100403.94
2023-04-15T02:02:59.791Z,100406.94
2023-04-15T02:05:26.770Z,100410.19
2023-04-15T02:07:54.536Z,100406.94
2023-04-15T02:10:21.401Z,100414.25
2023-04-15T02:12:50.850Z,100413.81
2023-04-15T02:15:17.901Z,100416.41
2023-04-15T02:17:51.080Z,100406.81
2023-04-15T02:20:19.209Z,100411.59
2023-04-15T02:22:46.144Z,100421.94
2023-04-15T02:25:15.004Z,100412.09
2023-04-15T02:27:41.793Z,100420.94
2023-04-15T02:30:09.509Z,100421.50
2023-04-15T02:32:39.194Z,100416.63
2023-04-15T02:35:09.062Z,100426.00
2023-04-15T02:37:40.784Z,100420.81
2023-04-15T02:40:14.160Z,100422.66
2023-04-15T02:42:41.317Z,100429.16
2023-04-15T02:45:09.145Z,100427.63
2023-04-15T02:47:36.217Z,100430.25
2023-04-15T02:50:04.019Z,100440.66
2023-04-15T02:52:34.999Z,100434.50
2023-04-15T02:55:02.708Z,100439.63
2023-04-15T02:57:29.763Z,100444.44
2023-04-15T02:59:56.705Z,100444.44
2023-04-15T03:02:25.740Z,100444.63
2023-04-15T03:04:55.792Z,100438.81
2023-04-15T03:07:22.705Z,100450.66
2023-04-15T03:09:51.048Z,100448.78
2023-04-15T03:12:18.056Z,100447.69
2023-04-15T03:14:44.971Z,100440.91
2023-04-15T03:17:11.835Z,100445.16
2023-04-15T03:19:41.680Z,100443.19
2023-04-15T03:22:08.462Z,100447.50
2023-04-15T03:24:35.317Z,100450.41
2023-04-15T03:27:03.895Z,100445.97
2023-04-15T03:29:30.776Z,100462.16
2023-04-15T03:31:58.867Z,100457.34
2023-04-15T03:34:25.806Z,100460.31
2023-04-15T03:36:55.740Z,100462.78
2023-04-15T03:39:22.558Z,100463.13
2023-04-15T03:41:49.414Z,100463.13
2023-04-15T03:44:19.522Z,100463.66
2023-04-15T03:46:46.682Z,100466.84
2023-04-15T03:49:14.294Z,100474.44
2023-04-15T03:51:41.306Z,100474.53
2023-04-15T03:54:08.223Z,100474.53
2023-04-15T03:56:35.032Z,100477.97
2023-04-15T03:59:02.066Z,100479.31
2023-04-15T04:01:30.887Z,100483.75
2023-04-15T04:03:57.915Z,100489.97
2023-04-15T04:06:25.035Z,100487.91
2023-04-15T04:08:51.942Z,100482.31
2023-04-15T04:11:18.784Z,100488.63
2023-04-15T04:13:45.606Z,100502.97
2023-04-15T04:16:12.545Z,100505.16
2023-04-15T04:18:40.951Z,100506.78
2023-04-15T04:21:07.813Z,100512.47
2023-04-15T04:23:34.617Z,100516.72
2023-04-15T04:26:01.487Z,100514.28
2023-04-15T04:28:28.506Z,100516.00
2023-04-15T04:30:57.506Z,100527.13
2023-04-15T04:33:24.618Z,100523.03
2023-04-15T04:35:52.766Z,100523.13
2023-04-15T04:38:19.590Z,100529.75
2023-04-15T04:40:46.704Z,100540.91
2023-04-15T04:43:16.183Z,100540.09
2023-04-15T04:45:43.078Z,100545.44
2023-04-15T04:48:10.605Z,100553.13
2023-04-15T04:50:37.676Z,100555.69
2023-04-15T04:53:06.077Z,100559.72
2023-04-15T04:55:32.994Z,100557.13
2023-04-15T04:57:59.833Z,100560.19
2023-04-15T05:00:26.620Z,100569.56
2023-04-15T05:02:54.765Z,100574.09
2023-04-15T05:05:22.043Z,100577.41
2023-04-15T05:07:50.628Z,100581.09
2023-04-15T05:10:18.864Z,100583.63
2023-04-15T05:12:45.671Z,100586.31
2023-04-15T05:15:13.891Z,100592.75
2023-04-15T05:17:40.925Z,100605.81
2023-04-15T05:20:09.858Z,100610.13
2023-04-15T05:22:37.226Z,100609.78
2023-04-15T05:25:06.761Z,100620.78
2023-04-15T05:27:34.950Z,100621.94
2023-04-15T05:30:01.982Z,100626.28
2023-04-15T05:32:28.816Z,100628.28
2023-04-15T05:34:55.703Z,100628.03
2023-04-15T05:37:22.582Z,100633.88
2023-04-15T05:39:49.819Z,100634.09
2023-04-15T05:42:16.812Z,100643.72
2023-04-15T05:44:45.070Z,100641.78
2023-04-15T05:47:11.984Z,100650.69
2023-04-15T05:49:38.787Z,100655.38
2023-04-15T05:52:05.974Z,100654.38
2023-04-15T05:54:32.808Z,100653.41
2023-04-15T05:56:59.663Z,100664.28
2023-04-15T05:59:27.175Z,100671.16
2023-04-15T06:01:55.617Z,100670.06
2023-04-15T06:04:23.050Z,100674.16
2023-04-15T06:06:49.983Z,100675.75
2023-04-15T06:09:16.919Z,100679.03
2023-04-15T06:11:43.832Z,100684.38
2023-04-15T06:14:10.753Z,100691.28
2023-04-15T06:16:40.682Z,100689.38
2023-04-15T06:19:08.894Z,100699.41
2023-04-15T06:21:36.021Z,100709.19
2023-04-15T06:24:03.397Z,100707.66
2023-04-15T06:26:30.249Z,100716.28
2023-04-15T06:28:58.434Z,100711.22
2023-04-15T06:31:25.313Z,100719.72
2023-04-15T06:33:52.186Z,100716.66
2023-04-15T06:36:20.668Z,100723.38
2023-04-15T06:38:47.489Z,100726.69
2023-04-15T06:41:15.940Z,100737.31
2023-04-15T06:43:43.552Z,100732.91
2023-04-15T06:46:11.038Z,100743.19
2023-04-15T06:48:38.188Z,100741.56
2023-04-15T06:51:05.211Z,100747.34
2023-04-15T06:53:40.916Z,100740.84
2023-04-15T06:56:08.784Z,100751.34
2023-04-15T06:58:35.889Z,100757.69
2023-04-15T07:01:05.449Z,100760.31
2023-04-15T07:03:33.079Z,100764.72
2023-04-15T07:06:00.092Z,100767.03
2023-04-15T07:08:26.960Z,100767.69
2023-04-15T07:10:55.241Z,100768.31
2023-04-15T07:13:22.476Z,100768.22
2023-04-15T07:15:49.325Z,100772.53
2023-04-15T07:18:16.445Z,100783.50
2023-04-15T07:20:43.661Z,100784.13
2023-04-15T07:23:10.674Z,100783.22
2023-04-15T07:25:37.473Z,100796.56
2023-04-15T07:28:05.792Z,100801.34
2023-04-15T07:30:33.094Z,100800.28
2023-04-15T07:33:00.353Z,100807.22
2023-04-15T07:35:27.871Z,100807.78
2023-04-15T07:37:54.760Z,100810.22
2023-04-15T07:40:22.396Z,100808.22
2023-04-15T07:42:49.630Z,100823.44
2023-04-15T07:45:18.063Z,100840.38
2023-04-15T07:47:44.972Z,100843.22
2023-04-15T07:50:11.858Z,100849.69
2023-04-15T07:52:39.505Z,100859.84
2023-04-15T07:55:08.500Z,100860.53
2023-04-15T07:57:38.283Z,100868.91
2023-04-15T08:00:09.198Z,100876.34
2023-04-15T08:02:38.989Z,100884.47
2023-04-15T08:05:07.889Z,100881.06
2023-04-15T08:07:34.869Z,100887.75
2023-04-15T08:10:01.694Z,100900.13
2023-04-15T08:12:30.739Z,100909.41
2023-04-15T08:14:57.795Z,100902.88
2023-04-15T08:17:24.796Z,100908.06
2023-04-15T08:19:53.837Z,100908.69
2023-04-15T08:22:21.335Z,100916.59
2023-04-15T08:24:49.255Z,100920.19
2023-04-15T08:27:16.159Z,100924.94
2023-04-15T08:29:43.134Z,100925.16
2023-04-15T08:32:10.029Z,100932.16
2023-04-15T08:34:39.372Z,100945.22
2023-04-15T08:37:08.265Z,100950.41
2023-04-15T08:39:35.267Z,100954.00
2023-04-15T08:42:04.069Z,100951.31
2023-04-15T08:44:34.265Z,100955.66
2023-04-15T08:47:03.036Z,100968.22
2023-04-15T08:49:30.668Z,100954.97
2023-04-15T08:51:59.349Z,100970.75
2023-04-15T08:54:28.597Z,100973.53
2023-04-15T08:56:58.138Z,100984.44
2023-04-15T08:59:25.053Z,100985.16
2023-04-15T09:01:55.371Z,100986.91
2023-04-15T09:04:22.318Z,100996.63
2023-04-15T09:06:49.215Z,101009.22
2023-04-15T09:09:16.431Z,101009.25
2023-04-15T09:11:45.941Z,101010.78
2023-04-15T09:14:13.645Z,101012.53
2023-04-15T09:17:04.942Z,101025.66
2023-04-15T09:19:34.490Z,101027.81
2023-04-15T09:22:02.813Z,101030.56
2023-04-15T09:24:37.705Z,101042.81
2023-04-15T09:27:06.831Z,101049.66
2023-04-15T09:29:37.271Z,101049.25
2023-04-15T09:32:12.411Z,101058.03
2023-04-15T09:34:39.595Z,101064.00
2023-04-15T09:37:07.724Z,101073.13
2023-04-15T09:39:50.103Z,101076.06
2023-04-15T09:42:25.422Z,101085.28
2023-04-15T09:44:55.373Z,101088.41
2023-04-15T09:47:29.545Z,101089.50
2023-04-15T09:49:57.568Z,101095.13
2023-04-15T09:52:24.646Z,101099.41
2023-04-15T09:54:55.443Z,101106.66
2023-04-15T09:57:24.443Z,101098.00
2023-04-15T09:59:51.597Z,101110.50
2023-04-15T10:02:22.835Z,101114.06
2023-04-15T10:04:51.931Z,101113.34
2023-04-15T10:07:25.106Z,101122.44
2023-04-15T10:09:53.092Z,101127.94
2023-04-15T10:12:20.379Z,101123.47
2023-04-15T10:15:05.019Z,101120.38
2023-04-15T10:17:35.508Z,101130.84
2023-04-15T10:20:04.966Z,101125.53
2023-04-15T10:22:32.875Z,101126.97
2023-04-15T10:25:05.267Z,101137.63
2023-04-15T10:27:33.866Z,101137.63
2023-04-15T10:30:05.428Z,101145.59
2023-04-15T10:32:35.185Z,101147.00
2023-04-15T10:35:02.722Z,101150.47
2023-04-15T10:37:36.166Z,101156.66
2023-04-15T10:40:24.251Z,101166.28
2023-04-15T10:42:51.152Z,101172.03
2023-04-15T10:45:19.553Z,101163.34
2023-04-15T10:47:46.442Z,101170.06
2023-04-15T10:50:13.531Z,101181.66
2023-04-15T10:52:42.105Z,101182.50
2023-04-15T10:55:19.522Z,101178.97
2023-04-15T10:57:46.643Z,101188.25
2023-04-15T11:00:15.022Z,101197.13
2023-04-15T11:02:47.362Z,101178.81
2023-04-15T11:05:16.377Z,101187.69
2023-04-15T11:07:56.883Z,101189.66
2023-04-15T11:10:51.623Z,101182.56
2023-04-15T11:13:26.759Z,101195.91
2023-04-15T11:15:58.515Z,101203.31
2023-04-15T11:18:31.146Z,101209.94
2023-04-15T11:21:01.288Z,101202.47
2023-04-15T11:23:31.509Z,101210.38
2023-04-15T11:26:02.506Z,101199.25
2023-04-15T11:28:30.956Z,101214.19
2023-04-15T11:30:58.297Z,101213.63
2023-04-15T11:33:27.123Z,101220.44
2023-04-15T11:35:55.115Z,101227.25
2023-04-15T11:38:22.806Z,101235.88
2023-04-15T11:40:51.590Z,101236.94
2023-04-15T11:43:21.032Z,101250.69
2023-04-15T11:45:51.543Z,101249.06
2023-04-15T11:48:19.248Z,101252.78
2023-04-15T11:50:53.638Z,101270.25
2023-04-15T11:53:20.493Z,101261.41
2023-04-15T11:55:48.976Z,101271.06
2023-04-15T11:58:17.637Z,101281.44
2023-04-15T12:00:49.514Z,101286.31
2023-04-15T12:03:26.237Z,101281.91
2023-04-15T12:06:13.258Z,101280.41
2023-04-15T12:09:00.506Z,101288.09
2023-04-15T12:11:42.092Z,101285.88
2023-04-15T12:14:12.254Z,101297.84
2023-04-15T12:16:47.957Z,101290.25
2023-04-15T12:19:18.350Z,101292.22
2023-04-15T12:21:48.681Z,101299.28
2023-04-15T12:24:15.707Z,101310.63
2023-04-15T12:26:45.374Z,101316.22
2023-04-15T12:29:13.476Z,101313.78
2023-04-15T12:31:52.163Z,101320.47
2023-04-15T12:34:25.854Z,101316.81
2023-04-15T12:37:02.075Z,101324.84
2023-04-15T12:39:31.382Z,101337.34
2023-04-15T12:41:59.372Z,101333.41
2023-04-15T12:44:27.249Z,101336.72
2023-04-15T12:46:54.532Z,101340.75
2023-04-15T12:49:22.063Z,101338.75
2023-04-15T12:51:55.357Z,101344.56
2023-04-15T12:54:23.758Z,101353.63
2023-04-15T12:56:51.276Z,101358.19
2023-04-15T12:59:18.842Z,101366.16
2023-04-15T13:01:49.070Z,101369.16
2023-04-15T13:04:17.090Z,101386.88
2023-04-15T13:06:44.340Z,101365.72
2023-04-15T13:09:11.621Z,101367.97
2023-04-15T13:11:39.933Z,101373.59
2023-04-15T13:14:09.221Z,101396.06
2023-04-15T13:16:36.575Z,101391.22
2023-04-15T13:19:04.687Z,101392.19
2023-04-15T13:21:35.716Z,101393.59
2023-04-15T13:24:04.064Z,101395.25
2023-04-15T13:26:31.805Z,101404.91
2023-04-15T13:29:00.757Z,101418.03
2023-04-15T13:31:28.957Z,101418.16
2023-04-15T13:33:56.981Z,101408.16
2023-04-15T13:36:23.834Z,101421.63
2023-04-15T13:38:51.600Z,101422.66
2023-04-15T13:41:18.835Z,101424.63
2023-04-15T13:43:45.726Z,101430.84
2023-04-15T13:46:14.086Z,101436.19
2023-04-15T13:48:41.062Z,101445.13
2023-04-15T13:51:07.922Z,101435.94
2023-04-15T13:53:38.679Z,101460.63
2023-04-15T13:56:06.940Z,101448.97
2023-04-15T13:58:33.836Z,101463.34
2023-04-15T14:01:02.538Z,101476.38
2023-04-15T14:03:32.656Z,101464.66
2023-04-15T14:06:02.014Z,101462.88
2023-04-15T14:08:30.044Z,101472.03
2023-04-15T14:10:57.731Z,101472.19
2023-04-15T14:13:24.677Z,101466.59
2023-04-15T14:15:51.623Z,101470.94
2023-04-15T14:18:18.544Z,101484.91
2023-04-15T14:20:46.802Z,101493.69
2023-04-15T14:23:13.805Z,101496.13
2023-04-15T14:25:40.690Z,101496.19
2023-04-15T14:28:07.555Z,101504.69
2023-04-15T14:30:34.470Z,101509.06
2023-04-15T14:33:01.552Z,101519.09
2023-04-15T14:35:28.647Z,101520.00
2023-04-15T14:37:56.998Z,101514.41
2023-04-15T14:40:23.989Z,101530.22
2023-04-15T14:42:50.933Z,101530.09
2023-04-15T14:45:19.529Z,101513.06
2023-04-15T14:47:47.305Z,101540.25
2023-04-15T14:50:14.277Z,101534.13
2023-04-15T14:52:44.202Z,101538.75
2023-04-15T14:55:15.430Z,101545.03
2023-04-15T14:57:44.379Z,101549.94
2023-04-15T15:00:13.773Z,101555.47
2023-04-15T15:02:45.311Z,101560.53
2023-04-15T15:05:12.591Z,101571.69
2023-04-15T15:07:45.509Z,101563.94
2023-04-15T15:10:13.909Z,101586.69
2023-04-15T15:12:41.204Z,101581.88
2023-04-15T15:15:25.149Z,101581.31
2023-04-15T15:17:59.723Z,101588.28
2023-04-15T15:20:29.442Z,101586.69
2023-04-15T15:22:56.861Z,101594.16
2023-04-15T15:25:28.381Z,101591.06
2023-04-15T15:27:55.297Z,101588.56
2023-04-15T15:30:22.381Z,101594.91
2023-04-15T15:32:49.390Z,101609.00
2023-04-15T15:35:16.565Z,101606.44
2023-04-15T15:37:51.068Z,101609.19
2023-04-15T15:40:17.926Z,101624.53
2023-04-15T15:42:47.334Z,101625.91
2023-04-15T15:45:16.617Z,101635.47
2023-04-15T15:47:43.747Z,101633.25
2023-04-15T15:50:11.336Z,101628.75
2023-04-15T15:52:39.350Z,101648.31
2023-04-15T15:55:07.154Z,101643.44
2023-04-15T15:57:34.153Z,101649.75
2023-04-15T16:02:59.729Z,101655.47
2023-04-15T16:05:21.947Z,101660.19
2023-04-15T16:07:50.517Z,101657.81
2023-04-15T16:10:17.590Z,101663.94
2023-04-15T16:12:46.329Z,101660.44
2023-04-15T16:15:14.729Z,101670.13
2023-04-15T16:17:41.657Z,101671.97
2023-04-15T16:20:11.735Z,101674.19
2023-04-15T16:22:39.451Z,101685.28
2023-04-15T16:25:07.328Z,101678.75
2023-04-15T16:27:54.150Z,101685.19
2023-04-15T16:30:26.125Z,101687.38
2023-04-15T16:32:53.284Z,101680.84
2023-04-15T16:35:20.472Z,101677.38
2023-04-15T16:37:47.333Z,101689.31
2023-04-15T16:40:14.280Z,101694.31
2023-04-15T16:42:43.881Z,101706.19
2023-04-15T16:45:11.369Z,101697.66
2023-04-15T16:47:39.728Z,101708.19
2023-04-15T16:50:12.325Z,101702.31
2023-04-15T16:52:39.277Z,101705.47
2023-04-15T16:55:06.971Z,101715.38
2023-04-15T16:58:02.172Z,101715.34
2023-04-15T17:00:21.222Z,101720.75
2023-04-15T17:02:49.610Z,101731.31
2023-04-15T17:05:16.768Z,101721.94
2023-04-15T17:07:43.560Z,101737.88
2023-04-15T17:10:11.017Z,101725.25
2023-04-15T17:12:40.637Z,101738.91
2023-04-15T17:15:08.903Z,101736.81
2023-04-15T17:17:36.004Z,101734.88
2023-04-15T17:20:06.998Z,101730.59
2023-04-15T17:22:34.081Z,101746.09
2023-04-15T17:25:00.967Z,101736.75
2023-04-15T17:27:28.992Z,101750.34
2023-04-15T17:29:56.322Z,101749.56
2023-04-15T17:32:30.581Z,101744.88
2023-04-15T17:35:01.464Z,101758.53
2023-04-15T17:37:29.671Z,101760.84
2023-04-15T17:39:58.424Z,101770.84
2023-04-15T17:42:26.333Z,101769.94
2023-04-15T17:44:55.531Z,101769.56
2023-04-15T17:47:27.013Z,101771.94
2023-04-15T17:49:53.845Z,101774.84
2023-04-15T17:52:20.729Z,101779.72
2023-04-15T17:54:49.136Z,101782.63
2023-04-15T17:57:18.276Z,101783.88
2023-04-15T17:59:51.356Z,101786.78
2023-04-15T18:02:18.556Z,101796.97
2023-04-15T18:04:45.760Z,101793.34
2023-04-15T18:07:12.795Z,101795.94
2023-04-15T18:09:41.667Z,101811.41
2023-04-15T18:12:09.939Z,101802.34
2023-04-15T18:14:37.067Z,101813.00
2023-04-15T18:17:04.144Z,101813.63
2023-04-15T18:19:31.707Z,101818.63
2023-04-15T18:22:00.837Z,101819.59
2023-04-15T18:24:27.921Z,101817.34
2023-04-15T18:26:54.833Z,101833.66
2023-04-15T18:29:23.109Z,101832.03
2023-04-15T18:31:50.040Z,101837.63
2023-04-15T18:34:19.670Z,101844.88
2023-04-15T18:36:46.552Z,101843.91
2023-04-15T18:39:13.575Z,101841.41
2023-04-15T18:41:40.494Z,101848.69
2023-04-15T18:44:07.326Z,101848.31
2023-04-15T18:46:39.967Z,101854.25
2023-04-15T18:49:07.040Z,101862.53
2023-04-15T18:51:34.078Z,101873.72
2023-04-15T18:54:01.320Z,101862.00
2023-04-15T18:56:28.445Z,101875.16
2023-04-15T18:59:27.145Z,101888.00
2023-04-15T19:01:45.821Z,101895.06
2023-04-15T19:04:12.757Z,101890.53
2023-04-15T19:06:39.805Z,101884.28
2023-04-15T19:09:11.018Z,101886.53
2023-04-15T19:11:38.027Z,101884.09
2023-04-15T19:14:07.584Z,101894.41
2023-04-15T19:16:34.504Z,101900.84
2023-04-15T19:19:03.129Z,101904.72
2023-04-15T19:21:32.781Z,101910.97
2023-04-15T19:24:00.508Z,101904.63
2023-04-15T19:26:27.452Z,101908.53
2023-04-15T19:28:54.618Z,101916.03
2023-04-15T19:31:21.461Z,101916.94
2023-04-15T19:33:48.371Z,101921.94
2023-04-15T19:36:19.509Z,101924.00
2023-04-15T19:38:49.327Z,101924.72
2023-04-15T19:41:16.181Z,101925.03
2023-04-15T19:43:43.086Z,101937.72
2023-04-15T19:46:13.174Z,101932.41
2023-04-15T19:48:42.575Z,101940.72
2023-04-15T19:51:09.476Z,101939.66
2023-04-15T19:53:38.002Z,101933.69
2023-04-15T19:56:04.945Z,101936.88
2023-04-15T19:58:32.543Z,101949.91
2023-04-15T20:01:01.370Z,101951.88
2023-04-15T20:03:28.512Z,101955.16
2023-04-15T20:05:55.546Z,101952.19
2023-04-15T20:08:22.422Z,101965.56
2023-04-15T20:10:50.983Z,101955.19
2023-04-15T20:13:17.855Z,101962.44
2023-04-15T20:15:45.056Z,101963.53
2023-04-15T20:18:11.910Z,101966.03
2023-04-15T20:20:39.621Z,101970.44
2023-04-15T20:23:06.468Z,101964.91
2023-04-15T20:25:33.291Z,101970.06
2023-04-15T20:28:01.733Z,101974.69
2023-04-15T20:30:29.299Z,101974.91
2023-04-15T20:32:56.373Z,101973.69
2023-04-15T20:35:23.569Z,101975.53
2023-04-15T20:37:50.461Z,101973.69
2023-04-15T20:40:17.510Z,101969.91
2023-04-15T20:42:44.367Z,101974.75
2023-04-15T20:45:13.167Z,101971.03
2023-04-15T20:47:40.150Z,101978.09
2023-04-15T20:50:08.573Z,101983.53
2023-04-15T20:52:35.487Z,101971.59
2023-04-15T20:55:02.287Z,101978.84
2023-04-15T20:57:30.261Z,101986.09
2023-04-15T20:59:57.671Z,101987.06
2023-04-15T21:02:26.720Z,101985.59
2023-04-15T21:04:53.764Z,101988.88
2023-04-15T21:07:20.711Z,101994.00
2023-04-15T21:09:47.603Z,101997.34
2023-04-15T21:12:14.535Z,102000.56
2023-04-15T21:14:41.508Z,101999.63
2023-04-15T21:17:11.238Z,101989.91
2023-04-15T21:19:40.617Z,102001.72
2023-04-15T21:22:07.547Z,101992.16
2023-04-15T21:24:34.520Z,101994.69
2023-04-15T21:27:02.112Z,102004.34
2023-04-15T21:29:29.104Z,101997.97
2023-04-15T21:31:56.181Z,101996.72
2023-04-15T21:34:23.085Z,102006.25
2023-04-15T21:36:51.295Z,102003.47
2023-04-15T21:39:18.174Z,102010.94
2023-04-15T21:41:45.333Z,102008.69
2023-04-15T21:44:14.405Z,102022.13
2023-04-15T21:46:41.798Z,102020.06
2023-04-15T21:49:12.669Z,102020.31
2023-04-15T21:51:39.495Z,102016.16
2023-04-15T21:54:07.812Z,102016.78
2023-04-15T21:56:34.847Z,102024.53
2023-04-15T21:59:01.665Z,102017.16
2023-04-15T22:01:28.568Z,102025.97
2023-04-15T22:03:55.736Z,102024.81
2023-04-15T22:06:22.699Z,102032.25
2023-04-15T22:08:56.952Z,102033.19
2023-04-15T22:11:38.000Z,102028.38
2023-04-15T22:14:05.780Z,102032.97
2023-04-15T22:16:32.632Z,102027.78
2023-04-15T22:18:59.505Z,102034.31
2023-04-15T22:21:26.890Z,102037.94
2023-04-15T22:24:37.974Z,102036.50
2023-04-15T22:26:41.912Z,102033.56
2023-04-15T22:29:09.076Z,102036.56
2023-04-15T22:31:36.109Z,102036.75
2023-04-15T22:34:03.050Z,102042.88
2023-04-15T22:36:31.788Z,102049.66
2023-04-15T22:38:58.729Z,102046.38
2023-04-15T22:41:25.566Z,102055.16
2023-04-15T22:43:53.751Z,102049.00
2023-04-15T22:46:20.751Z,102063.91
2023-04-15T22:48:47.646Z,102060.69
2023-04-15T22:51:21.502Z,102064.44
2023-04-15T22:53:48.558Z,102066.25
2023-04-15T22:56:15.749Z,102074.41
2023-04-15T22:58:42.545Z,102077.47
2023-04-15T23:01:10.800Z,102079.25
2023-04-15T23:03:39.079Z,102085.50
2023-04-15T23:06:24.642Z,102080.72
2023-04-15T23:08:51.949Z,102083.72
2023-04-15T23:11:18.821Z,102096.97
2023-04-15T23:13:45.827Z,102090.97
2023-04-15T23:16:14.095Z,102101.13
2023-04-15T23:18:40.969Z,102096.38
2023-04-15T23:21:07.795Z,102095.22
2023-04-15T23:23:34.613Z,102085.50
2023-04-15T23:26:03.835Z,102092.53
2023-04-15T23:28:30.913Z,102084.78
2023-04-15T23:31:00.404Z,102092.53
2023-04-15T23:33:28.986Z,102090.16
2023-04-15T23:35:55.815Z,102086.09
2023-04-15T23:38:22.591Z,102090.66
2023-04-15T23:40:51.154Z,102089.00
2023-04-15T23:43:17.969Z,102090.03
2023-04-15T23:45:44.838Z,102087.75
2023-04-15T23:48:11.624Z,102089.31
2023-04-15T23:50:39.883Z,102092.72
2023-04-15T23:53:06.718Z,102098.00
2023-04-15T23:55:33.554Z,102100.72
2023-04-15T23:58:00.444Z,102101.75
